sensor_id;sensor_type;location;lat;lon;timestamp;P1;durP1;ratioP1;P2;durP2;ratioP2
61025;SDS011;46911;32.650;-16.902;2024-01-16T00:01:19;25.55;;;3.33;;
61025;SDS011;46911;32.650;-16.902;2024-01-16T00:03:22;25.20;;;2.78;;
61025;SDS011;46911;32.650;-16.902;2024-01-16T00:05:26;21.88;;;2.35;;
61025;SDS011;46911;32.650;-16.902;2024-01-16T00:07:30;28.08;;;2.83;;
61025;SDS011;46911;32.650;-16.902;2024-01-16T00:09:35;20.88;;;2.38;;
61025;SDS011;46911;32.650;-16.902;2024-01-16T00:11:42;20.75;;;2.63;;
61025;SDS011;46911;32.650;-16.902;2024-01-16T00:13:46;22.88;;;2.58;;
61025;SDS011;46911;32.650;-16.902;2024-01-16T00:15:47;22.98;;;3.53;;
61025;SDS011;46911;32.650;-16.902;2024-01-16T00:17:51;29.10;;;3.38;;
61025;SDS011;46911;32.650;-16.902;2024-01-16T00:19:51;27.85;;;3.28;;
61025;SDS011;46911;32.650;-16.902;2024-01-16T00:21:55;26.90;;;3.17;;
61025;SDS011;46911;32.650;-16.902;2024-01-16T00:23:56;22.20;;;2.42;;
61025;SDS011;46911;32.650;-16.902;2024-01-16T00:25:56;27.90;;;3.58;;
61025;SDS011;46911;32.650;-16.902;2024-01-16T00:27:57;29.48;;;3.33;;
61025;SDS011;46911;32.650;-16.902;2024-01-16T00:29:58;24.73;;;3.55;;
61025;SDS011;46911;32.650;-16.902;2024-01-16T00:31:59;21.38;;;4.03;;
61025;SDS011;46911;32.650;-16.902;2024-01-16T00:34:02;22.58;;;2.70;;
61025;SDS011;46911;32.650;-16.902;2024-01-16T00:36:03;13.35;;;2.72;;
61025;SDS011;46911;32.650;-16.902;2024-01-16T00:38:05;22.27;;;3.08;;
61025;SDS011;46911;32.650;-16.902;2024-01-16T00:40:08;22.45;;;3.38;;
61025;SDS011;46911;32.650;-16.902;2024-01-16T00:42:11;18.52;;;2.65;;
61025;SDS011;46911;32.650;-16.902;2024-01-16T00:44:12;16.80;;;2.33;;
61025;SDS011;46911;32.650;-16.902;2024-01-16T00:46:13;28.27;;;3.00;;
61025;SDS011;46911;32.650;-16.902;2024-01-16T00:48:14;25.08;;;3.35;;
61025;SDS011;46911;32.650;-16.902;2024-01-16T00:50:15;24.80;;;2.90;;
61025;SDS011;46911;32.650;-16.902;2024-01-16T00:52:16;20.00;;;3.42;;
61025;SDS011;46911;32.650;-16.902;2024-01-16T00:54:21;22.50;;;2.92;;
61025;SDS011;46911;32.650;-16.902;2024-01-16T00:56:25;21.63;;;3.03;;
61025;SDS011;46911;32.650;-16.902;2024-01-16T00:58:28;25.20;;;3.70;;
61025;SDS011;46911;32.650;-16.902;2024-01-16T01:00:28;21.73;;;3.38;;
61025;SDS011;46911;32.650;-16.902;2024-01-16T01:02:31;28.73;;;2.80;;
61025;SDS011;46911;32.650;-16.902;2024-01-16T01:04:32;19.42;;;2.53;;
61025;SDS011;46911;32.650;-16.902;2024-01-16T01:06:35;17.20;;;2.97;;
61025;SDS011;46911;32.650;-16.902;2024-01-16T01:08:36;19.73;;;2.65;;
61025;SDS011;46911;32.650;-16.902;2024-01-16T01:10:39;32.13;;;3.30;;
61025;SDS011;46911;32.650;-16.902;2024-01-16T01:12:46;34.67;;;3.38;;
61025;SDS011;46911;32.650;-16.902;2024-01-16T01:14:47;19.45;;;3.13;;
61025;SDS011;46911;32.650;-16.902;2024-01-16T01:16:48;27.58;;;3.30;;
61025;SDS011;46911;32.650;-16.902;2024-01-16T01:18:48;27.98;;;2.97;;
61025;SDS011;46911;32.650;-16.902;2024-01-16T01:20:54;30.75;;;3.17;;
61025;SDS011;46911;32.650;-16.902;2024-01-16T01:22:56;30.80;;;3.70;;
61025;SDS011;46911;32.650;-16.902;2024-01-16T01:24:59;24.08;;;3.67;;
61025;SDS011;46911;32.650;-16.902;2024-01-16T01:27:02;30.02;;;3.72;;
61025;SDS011;46911;32.650;-16.902;2024-01-16T01:29:08;24.95;;;3.13;;
61025;SDS011;46911;32.650;-16.902;2024-01-16T01:31:14;26.55;;;2.97;;
61025;SDS011;46911;32.650;-16.902;2024-01-16T01:33:15;24.20;;;3.65;;
61025;SDS011;46911;32.650;-16.902;2024-01-16T01:35:16;25.27;;;3.35;;
61025;SDS011;46911;32.650;-16.902;2024-01-16T01:37:22;22.23;;;2.75;;
61025;SDS011;46911;32.650;-16.902;2024-01-16T01:39:23;21.58;;;3.17;;
61025;SDS011;46911;32.650;-16.902;2024-01-16T01:41:24;24.88;;;3.30;;
61025;SDS011;46911;32.650;-16.902;2024-01-16T01:43:27;33.40;;;3.88;;
61025;SDS011;46911;32.650;-16.902;2024-01-16T01:45:28;20.83;;;3.10;;
61025;SDS011;46911;32.650;-16.902;2024-01-16T01:47:32;18.95;;;2.90;;
61025;SDS011;46911;32.650;-16.902;2024-01-16T01:49:41;26.27;;;4.20;;
61025;SDS011;46911;32.650;-16.902;2024-01-16T01:51:45;26.30;;;3.75;;
61025;SDS011;46911;32.650;-16.902;2024-01-16T01:53:49;33.75;;;3.45;;
61025;SDS011;46911;32.650;-16.902;2024-01-16T01:55:54;29.75;;;3.58;;
61025;SDS011;46911;32.650;-16.902;2024-01-16T01:57:58;36.03;;;3.42;;
61025;SDS011;46911;32.650;-16.902;2024-01-16T02:00:00;25.08;;;2.75;;
61025;SDS011;46911;32.650;-16.902;2024-01-16T02:02:12;30.40;;;3.70;;
61025;SDS011;46911;32.650;-16.902;2024-01-16T02:04:14;24.13;;;3.15;;
61025;SDS011;46911;32.650;-16.902;2024-01-16T02:06:18;24.80;;;3.22;;
61025;SDS011;46911;32.650;-16.902;2024-01-16T02:08:21;22.67;;;3.50;;
61025;SDS011;46911;32.650;-16.902;2024-01-16T02:10:25;32.60;;;3.60;;
61025;SDS011;46911;32.650;-16.902;2024-01-16T02:12:25;37.60;;;4.80;;
61025;SDS011;46911;32.650;-16.902;2024-01-16T02:14:32;24.25;;;2.97;;
61025;SDS011;46911;32.650;-16.902;2024-01-16T02:16:40;19.05;;;2.85;;
61025;SDS011;46911;32.650;-16.902;2024-01-16T02:18:42;28.27;;;3.45;;
61025;SDS011;46911;32.650;-16.902;2024-01-16T02:20:47;26.83;;;3.10;;
61025;SDS011;46911;32.650;-16.902;2024-01-16T02:22:48;26.98;;;3.30;;
61025;SDS011;46911;32.650;-16.902;2024-01-16T02:24:57;30.88;;;3.67;;
61025;SDS011;46911;32.650;-16.902;2024-01-16T02:26:58;19.67;;;2.97;;
61025;SDS011;46911;32.650;-16.902;2024-01-16T02:29:02;24.77;;;2.88;;
61025;SDS011;46911;32.650;-16.902;2024-01-16T02:31:07;28.30;;;3.55;;
61025;SDS011;46911;32.650;-16.902;2024-01-16T02:33:11;30.60;;;4.57;;
61025;SDS011;46911;32.650;-16.902;2024-01-16T02:35:15;31.10;;;3.92;;
61025;SDS011;46911;32.650;-16.902;2024-01-16T02:37:20;30.75;;;3.33;;
61025;SDS011;46911;32.650;-16.902;2024-01-16T02:39:21;23.58;;;3.47;;
61025;SDS011;46911;32.650;-16.902;2024-01-16T02:41:25;14.48;;;2.13;;
61025;SDS011;46911;32.650;-16.902;2024-01-16T02:43:26;22.67;;;3.30;;
61025;SDS011;46911;32.650;-16.902;2024-01-16T02:45:27;22.42;;;3.20;;
61025;SDS011;46911;32.650;-16.902;2024-01-16T02:47:31;21.90;;;3.08;;
61025;SDS011;46911;32.650;-16.902;2024-01-16T02:49:35;27.40;;;3.67;;
61025;SDS011;46911;32.650;-16.902;2024-01-16T02:51:37;31.17;;;3.40;;
61025;SDS011;46911;32.650;-16.902;2024-01-16T02:53:38;30.67;;;4.80;;
61025;SDS011;46911;32.650;-16.902;2024-01-16T02:55:39;31.92;;;4.00;;
61025;SDS011;46911;32.650;-16.902;2024-01-16T02:57:40;23.65;;;3.55;;
61025;SDS011;46911;32.650;-16.902;2024-01-16T02:59:43;31.55;;;3.22;;
61025;SDS011;46911;32.650;-16.902;2024-01-16T03:01:46;37.50;;;4.55;;
61025;SDS011;46911;32.650;-16.902;2024-01-16T03:03:48;43.00;;;4.45;;
61025;SDS011;46911;32.650;-16.902;2024-01-16T03:05:49;20.75;;;2.63;;
61025;SDS011;46911;32.650;-16.902;2024-01-16T03:07:50;39.22;;;4.55;;
61025;SDS011;46911;32.650;-16.902;2024-01-16T03:09:51;32.15;;;3.53;;
61025;SDS011;46911;32.650;-16.902;2024-01-16T03:11:51;18.63;;;2.63;;
61025;SDS011;46911;32.650;-16.902;2024-01-16T03:13:52;37.00;;;4.75;;
61025;SDS011;46911;32.650;-16.902;2024-01-16T03:15:55;28.13;;;3.47;;
61025;SDS011;46911;32.650;-16.902;2024-01-16T03:17:57;37.05;;;4.15;;
61025;SDS011;46911;32.650;-16.902;2024-01-16T03:19:58;27.02;;;3.60;;
61025;SDS011;46911;32.650;-16.902;2024-01-16T03:21:59;39.35;;;5.07;;
61025;SDS011;46911;32.650;-16.902;2024-01-16T03:24:00;37.35;;;3.33;;
61025;SDS011;46911;32.650;-16.902;2024-01-16T03:26:03;24.63;;;3.75;;
61025;SDS011;46911;32.650;-16.902;2024-01-16T03:28:05;29.85;;;3.53;;
61025;SDS011;46911;32.650;-16.902;2024-01-16T03:30:10;31.65;;;4.65;;
61025;SDS011;46911;32.650;-16.902;2024-01-16T03:32:11;30.33;;;4.50;;
61025;SDS011;46911;32.650;-16.902;2024-01-16T03:34:12;32.47;;;4.70;;
61025;SDS011;46911;32.650;-16.902;2024-01-16T03:36:13;49.50;;;6.43;;
61025;SDS011;46911;32.650;-16.902;2024-01-16T03:38:19;51.30;;;6.68;;
61025;SDS011;46911;32.650;-16.902;2024-01-16T03:40:20;54.85;;;6.22;;
61025;SDS011;46911;32.650;-16.902;2024-01-16T03:42:21;60.05;;;8.00;;
61025;SDS011;46911;32.650;-16.902;2024-01-16T03:44:27;64.72;;;8.77;;
61025;SDS011;46911;32.650;-16.902;2024-01-16T03:46:28;78.07;;;8.95;;
61025;SDS011;46911;32.650;-16.902;2024-01-16T03:48:32;54.38;;;8.25;;
61025;SDS011;46911;32.650;-16.902;2024-01-16T03:50:35;89.93;;;10.77;;
61025;SDS011;46911;32.650;-16.902;2024-01-16T03:52:36;81.25;;;9.00;;
61025;SDS011;46911;32.650;-16.902;2024-01-16T03:54:37;66.25;;;9.23;;
61025;SDS011;46911;32.650;-16.902;2024-01-16T03:56:43;69.60;;;9.15;;
61025;SDS011;46911;32.650;-16.902;2024-01-16T03:58:46;63.58;;;8.57;;
61025;SDS011;46911;32.650;-16.902;2024-01-16T04:00:47;61.90;;;8.77;;
61025;SDS011;46911;32.650;-16.902;2024-01-16T04:02:54;65.72;;;9.20;;
61025;SDS011;46911;32.650;-16.902;2024-01-16T04:04:57;62.22;;;7.85;;
61025;SDS011;46911;32.650;-16.902;2024-01-16T04:07:03;79.53;;;9.90;;
61025;SDS011;46911;32.650;-16.902;2024-01-16T04:09:09;60.75;;;8.07;;
61025;SDS011;46911;32.650;-16.902;2024-01-16T04:11:15;66.03;;;8.55;;
61025;SDS011;46911;32.650;-16.902;2024-01-16T04:13:20;72.63;;;9.77;;
61025;SDS011;46911;32.650;-16.902;2024-01-16T04:15:26;67.25;;;8.85;;
61025;SDS011;46911;32.650;-16.902;2024-01-16T04:17:30;89.93;;;10.77;;
61025;SDS011;46911;32.650;-16.902;2024-01-16T04:19:34;79.18;;;9.82;;
61025;SDS011;46911;32.650;-16.902;2024-01-16T04:21:36;62.47;;;8.60;;
61025;SDS011;46911;32.650;-16.902;2024-01-16T04:23:41;58.20;;;8.68;;
61025;SDS011;46911;32.650;-16.902;2024-01-16T04:25:42;76.45;;;11.38;;
61025;SDS011;46911;32.650;-16.902;2024-01-16T04:27:43;72.60;;;8.35;;
61025;SDS011;46911;32.650;-16.902;2024-01-16T04:29:47;81.43;;;10.07;;
61025;SDS011;46911;32.650;-16.902;2024-01-16T04:31:50;72.35;;;9.73;;
61025;SDS011;46911;32.650;-16.902;2024-01-16T04:33:51;55.70;;;7.95;;
61025;SDS011;46911;32.650;-16.902;2024-01-16T04:35:54;60.40;;;9.43;;
61025;SDS011;46911;32.650;-16.902;2024-01-16T04:37:56;75.22;;;10.10;;
61025;SDS011;46911;32.650;-16.902;2024-01-16T04:39:59;76.00;;;10.25;;
61025;SDS011;46911;32.650;-16.902;2024-01-16T04:42:03;79.38;;;12.02;;
61025;SDS011;46911;32.650;-16.902;2024-01-16T04:44:04;84.38;;;11.60;;
61025;SDS011;46911;32.650;-16.902;2024-01-16T04:46:05;111.70;;;14.80;;
61025;SDS011;46911;32.650;-16.902;2024-01-16T04:48:08;143.98;;;15.98;;
61025;SDS011;46911;32.650;-16.902;2024-01-16T04:50:09;150.63;;;15.77;;
61025;SDS011;46911;32.650;-16.902;2024-01-16T04:52:10;148.88;;;14.65;;
61025;SDS011;46911;32.650;-16.902;2024-01-16T04:54:11;149.20;;;15.15;;
61025;SDS011;46911;32.650;-16.902;2024-01-16T04:56:15;107.82;;;11.35;;
61025;SDS011;46911;32.650;-16.902;2024-01-16T04:58:18;97.82;;;11.93;;
61025;SDS011;46911;32.650;-16.902;2024-01-16T05:00:19;161.93;;;14.93;;
61025;SDS011;46911;32.650;-16.902;2024-01-16T05:02:20;116.88;;;12.50;;
61025;SDS011;46911;32.650;-16.902;2024-01-16T05:04:24;143.38;;;11.93;;
61025;SDS011;46911;32.650;-16.902;2024-01-16T05:06:27;126.03;;;13.45;;
61025;SDS011;46911;32.650;-16.902;2024-01-16T05:08:28;123.28;;;11.48;;
61025;SDS011;46911;32.650;-16.902;2024-01-16T05:10:33;116.32;;;12.07;;
61025;SDS011;46911;32.650;-16.902;2024-01-16T05:12:36;108.78;;;14.30;;
61025;SDS011;46911;32.650;-16.902;2024-01-16T05:14:41;85.63;;;10.57;;
61025;SDS011;46911;32.650;-16.902;2024-01-16T05:16:45;99.40;;;10.38;;
61025;SDS011;46911;32.650;-16.902;2024-01-16T05:18:51;109.60;;;12.00;;
61025;SDS011;46911;32.650;-16.902;2024-01-16T05:20:54;103.63;;;11.05;;
61025;SDS011;46911;32.650;-16.902;2024-01-16T05:22:56;110.70;;;12.57;;
61025;SDS011;46911;32.650;-16.902;2024-01-16T05:24:57;113.78;;;11.00;;
61025;SDS011;46911;32.650;-16.902;2024-01-16T05:26:59;97.90;;;9.93;;
61025;SDS011;46911;32.650;-16.902;2024-01-16T05:29:00;91.90;;;9.88;;
61025;SDS011;46911;32.650;-16.902;2024-01-16T05:31:03;80.72;;;8.88;;
61025;SDS011;46911;32.650;-16.902;2024-01-16T05:33:04;62.28;;;7.57;;
61025;SDS011;46911;32.650;-16.902;2024-01-16T05:35:08;78.65;;;8.85;;
61025;SDS011;46911;32.650;-16.902;2024-01-16T05:37:14;70.55;;;8.43;;
61025;SDS011;46911;32.650;-16.902;2024-01-16T05:39:17;132.15;;;11.07;;
61025;SDS011;46911;32.650;-16.902;2024-01-16T05:41:23;127.20;;;12.90;;
61025;SDS011;46911;32.650;-16.902;2024-01-16T05:43:29;127.32;;;14.45;;
61025;SDS011;46911;32.650;-16.902;2024-01-16T05:45:30;99.80;;;11.07;;
61025;SDS011;46911;32.650;-16.902;2024-01-16T05:47:33;141.35;;;16.38;;
61025;SDS011;46911;32.650;-16.902;2024-01-16T05:49:36;232.68;;;22.75;;
61025;SDS011;46911;32.650;-16.902;2024-01-16T05:51:39;171.43;;;18.83;;
61025;SDS011;46911;32.650;-16.902;2024-01-16T05:53:42;156.05;;;15.38;;
61025;SDS011;46911;32.650;-16.902;2024-01-16T05:55:44;152.20;;;14.02;;
61025;SDS011;46911;32.650;-16.902;2024-01-16T05:57:47;106.18;;;10.77;;
61025;SDS011;46911;32.650;-16.902;2024-01-16T05:59:47;99.57;;;10.63;;
61025;SDS011;46911;32.650;-16.902;2024-01-16T06:01:54;107.18;;;8.73;;
61025;SDS011;46911;32.650;-16.902;2024-01-16T06:03:54;103.15;;;10.30;;
61025;SDS011;46911;32.650;-16.902;2024-01-16T06:05:59;104.95;;;11.70;;
61025;SDS011;46911;32.650;-16.902;2024-01-16T06:08:03;124.82;;;11.32;;
61025;SDS011;46911;32.650;-16.902;2024-01-16T06:10:11;107.38;;;11.80;;
61025;SDS011;46911;32.650;-16.902;2024-01-16T06:12:16;130.70;;;12.85;;
61025;SDS011;46911;32.650;-16.902;2024-01-16T06:14:19;84.80;;;9.05;;
61025;SDS011;46911;32.650;-16.902;2024-01-16T06:16:22;109.05;;;10.00;;
61025;SDS011;46911;32.650;-16.902;2024-01-16T06:18:22;85.22;;;10.80;;
61025;SDS011;46911;32.650;-16.902;2024-01-16T06:20:28;93.45;;;10.32;;
61025;SDS011;46911;32.650;-16.902;2024-01-16T06:22:29;99.15;;;10.38;;
61025;SDS011;46911;32.650;-16.902;2024-01-16T06:24:33;79.85;;;8.73;;
61025;SDS011;46911;32.650;-16.902;2024-01-16T06:26:37;94.43;;;9.05;;
61025;SDS011;46911;32.650;-16.902;2024-01-16T06:28:38;120.10;;;10.32;;
61025;SDS011;46911;32.650;-16.902;2024-01-16T06:30:40;109.15;;;10.18;;
61025;SDS011;46911;32.650;-16.902;2024-01-16T06:32:41;110.40;;;9.63;;
61025;SDS011;46911;32.650;-16.902;2024-01-16T06:34:44;61.75;;;7.93;;
61025;SDS011;46911;32.650;-16.902;2024-01-16T06:36:45;107.93;;;10.93;;
61025;SDS011;46911;32.650;-16.902;2024-01-16T06:38:46;111.93;;;10.88;;
61025;SDS011;46911;32.650;-16.902;2024-01-16T06:40:47;106.20;;;12.10;;
61025;SDS011;46911;32.650;-16.902;2024-01-16T06:42:48;95.75;;;11.05;;
61025;SDS011;46911;32.650;-16.902;2024-01-16T06:44:49;91.80;;;9.95;;
61025;SDS011;46911;32.650;-16.902;2024-01-16T06:46:52;106.32;;;12.00;;
61025;SDS011;46911;32.650;-16.902;2024-01-16T06:48:58;94.97;;;10.15;;
61025;SDS011;46911;32.650;-16.902;2024-01-16T06:50:59;113.78;;;11.70;;
61025;SDS011;46911;32.650;-16.902;2024-01-16T06:53:04;112.57;;;10.85;;
61025;SDS011;46911;32.650;-16.902;2024-01-16T06:55:07;93.38;;;11.15;;
61025;SDS011;46911;32.650;-16.902;2024-01-16T06:57:13;115.90;;;14.32;;
61025;SDS011;46911;32.650;-16.902;2024-01-16T06:59:17;113.97;;;11.77;;
61025;SDS011;46911;32.650;-16.902;2024-01-16T07:01:25;119.43;;;11.65;;
61025;SDS011;46911;32.650;-16.902;2024-01-16T07:03:30;92.32;;;11.45;;
61025;SDS011;46911;32.650;-16.902;2024-01-16T07:05:30;105.78;;;12.70;;
61025;SDS011;46911;32.650;-16.902;2024-01-16T07:07:31;98.43;;;8.85;;
61025;SDS011;46911;32.650;-16.902;2024-01-16T07:09:32;82.47;;;11.88;;
61025;SDS011;46911;32.650;-16.902;2024-01-16T07:11:37;100.82;;;9.95;;
61025;SDS011;46911;32.650;-16.902;2024-01-16T07:13:43;90.15;;;10.38;;
61025;SDS011;46911;32.650;-16.902;2024-01-16T07:15:44;93.53;;;9.45;;
61025;SDS011;46911;32.650;-16.902;2024-01-16T07:17:47;85.35;;;9.80;;
61025;SDS011;46911;32.650;-16.902;2024-01-16T07:19:48;115.45;;;10.82;;
61025;SDS011;46911;32.650;-16.902;2024-01-16T07:21:54;105.78;;;9.60;;
61025;SDS011;46911;32.650;-16.902;2024-01-16T07:23:57;80.75;;;9.40;;
61025;SDS011;46911;32.650;-16.902;2024-01-16T07:26:00;126.32;;;12.95;;
61025;SDS011;46911;32.650;-16.902;2024-01-16T07:28:04;105.45;;;12.10;;
61025;SDS011;46911;32.650;-16.902;2024-01-16T07:30:05;99.95;;;9.93;;
61025;SDS011;46911;32.650;-16.902;2024-01-16T07:32:09;98.47;;;11.63;;
61025;SDS011;46911;32.650;-16.902;2024-01-16T07:34:11;85.18;;;9.50;;
61025;SDS011;46911;32.650;-16.902;2024-01-16T07:36:13;101.43;;;10.00;;
61025;SDS011;46911;32.650;-16.902;2024-01-16T07:38:16;94.05;;;9.63;;
61025;SDS011;46911;32.650;-16.902;2024-01-16T07:40:17;85.00;;;9.93;;
61025;SDS011;46911;32.650;-16.902;2024-01-16T07:42:20;78.38;;;9.40;;
61025;SDS011;46911;32.650;-16.902;2024-01-16T07:44:26;96.97;;;11.85;;
61025;SDS011;46911;32.650;-16.902;2024-01-16T07:46:32;85.60;;;11.25;;
61025;SDS011;46911;32.650;-16.902;2024-01-16T07:48:32;110.10;;;10.48;;
61025;SDS011;46911;32.650;-16.902;2024-01-16T07:50:35;61.08;;;8.52;;
61025;SDS011;46911;32.650;-16.902;2024-01-16T07:52:36;82.95;;;11.95;;
61025;SDS011;46911;32.650;-16.902;2024-01-16T07:54:37;87.25;;;8.63;;
61025;SDS011;46911;32.650;-16.902;2024-01-16T07:56:40;70.35;;;7.75;;
61025;SDS011;46911;32.650;-16.902;2024-01-16T07:58:41;78.82;;;9.70;;
61025;SDS011;46911;32.650;-16.902;2024-01-16T08:00:47;86.97;;;9.20;;
61025;SDS011;46911;32.650;-16.902;2024-01-16T08:02:50;76.20;;;11.80;;
61025;SDS011;46911;32.650;-16.902;2024-01-16T08:04:51;90.28;;;9.43;;
61025;SDS011;46911;32.650;-16.902;2024-01-16T08:06:52;93.07;;;8.90;;
61025;SDS011;46911;32.650;-16.902;2024-01-16T08:08:55;68.43;;;9.23;;
61025;SDS011;46911;32.650;-16.902;2024-01-16T08:10:57;78.10;;;9.55;;
61025;SDS011;46911;32.650;-16.902;2024-01-16T08:12:57;74.47;;;8.80;;
61025;SDS011;46911;32.650;-16.902;2024-01-16T08:14:58;68.07;;;9.23;;
61025;SDS011;46911;32.650;-16.902;2024-01-16T08:16:59;76.03;;;9.35;;
61025;SDS011;46911;32.650;-16.902;2024-01-16T08:19:00;77.85;;;10.05;;
61025;SDS011;46911;32.650;-16.902;2024-01-16T08:21:01;83.82;;;11.25;;
61025;SDS011;46911;32.650;-16.902;2024-01-16T08:23:05;74.72;;;8.90;;
61025;SDS011;46911;32.650;-16.902;2024-01-16T08:25:09;77.72;;;9.43;;
61025;SDS011;46911;32.650;-16.902;2024-01-16T08:27:15;70.82;;;6.72;;
61025;SDS011;46911;32.650;-16.902;2024-01-16T08:29:21;59.35;;;7.82;;
61025;SDS011;46911;32.650;-16.902;2024-01-16T08:31:22;48.78;;;6.32;;
61025;SDS011;46911;32.650;-16.902;2024-01-16T08:33:23;59.08;;;7.18;;
61025;SDS011;46911;32.650;-16.902;2024-01-16T08:35:26;42.42;;;6.93;;
61025;SDS011;46911;32.650;-16.902;2024-01-16T08:37:29;66.43;;;8.45;;
61025;SDS011;46911;32.650;-16.902;2024-01-16T08:39:33;46.58;;;7.43;;
61025;SDS011;46911;32.650;-16.902;2024-01-16T08:41:34;62.03;;;7.13;;
61025;SDS011;46911;32.650;-16.902;2024-01-16T08:43:37;49.78;;;6.88;;
61025;SDS011;46911;32.650;-16.902;2024-01-16T08:45:41;50.72;;;7.38;;
61025;SDS011;46911;32.650;-16.902;2024-01-16T08:47:44;63.30;;;8.13;;
61025;SDS011;46911;32.650;-16.902;2024-01-16T08:49:47;59.35;;;9.55;;
61025;SDS011;46911;32.650;-16.902;2024-01-16T08:51:50;62.67;;;8.15;;
61025;SDS011;46911;32.650;-16.902;2024-01-16T08:53:51;73.05;;;7.45;;
61025;SDS011;46911;32.650;-16.902;2024-01-16T08:55:57;69.82;;;8.27;;
61025;SDS011;46911;32.650;-16.902;2024-01-16T08:57:57;54.10;;;8.10;;
61025;SDS011;46911;32.650;-16.902;2024-01-16T08:59:58;62.15;;;8.60;;
61025;SDS011;46911;32.650;-16.902;2024-01-16T09:01:59;62.70;;;9.18;;
61025;SDS011;46911;32.650;-16.902;2024-01-16T09:04:04;68.35;;;8.43;;
61025;SDS011;46911;32.650;-16.902;2024-01-16T09:06:04;69.68;;;9.20;;
61025;SDS011;46911;32.650;-16.902;2024-01-16T09:08:05;77.40;;;10.43;;
61025;SDS011;46911;32.650;-16.902;2024-01-16T09:10:09;59.97;;;9.23;;
61025;SDS011;46911;32.650;-16.902;2024-01-16T09:12:13;70.60;;;7.88;;
61025;SDS011;46911;32.650;-16.902;2024-01-16T09:14:15;79.47;;;8.75;;
61025;SDS011;46911;32.650;-16.902;2024-01-16T09:16:18;69.05;;;8.18;;
61025;SDS011;46911;32.650;-16.902;2024-01-16T09:18:20;63.05;;;8.73;;
61025;SDS011;46911;32.650;-16.902;2024-01-16T09:20:21;65.60;;;8.20;;
61025;SDS011;46911;32.650;-16.902;2024-01-16T09:22:22;64.63;;;8.40;;
61025;SDS011;46911;32.650;-16.902;2024-01-16T09:24:25;63.13;;;7.43;;
61025;SDS011;46911;32.650;-16.902;2024-01-16T09:26:29;45.83;;;7.40;;
61025;SDS011;46911;32.650;-16.902;2024-01-16T09:28:32;52.92;;;8.57;;
61025;SDS011;46911;32.650;-16.902;2024-01-16T09:30:35;63.13;;;7.18;;
61025;SDS011;46911;32.650;-16.902;2024-01-16T09:32:36;65.40;;;6.75;;
61025;SDS011;46911;32.650;-16.902;2024-01-16T09:34:37;70.55;;;7.43;;
61025;SDS011;46911;32.650;-16.902;2024-01-16T09:36:41;50.40;;;6.97;;
61025;SDS011;46911;32.650;-16.902;2024-01-16T09:38:42;67.50;;;8.25;;
61025;SDS011;46911;32.650;-16.902;2024-01-16T09:40:44;51.20;;;7.25;;
61025;SDS011;46911;32.650;-16.902;2024-01-16T09:42:46;54.13;;;7.60;;
61025;SDS011;46911;32.650;-16.902;2024-01-16T09:44:47;56.22;;;6.85;;
61025;SDS011;46911;32.650;-16.902;2024-01-16T09:46:51;63.15;;;8.70;;
61025;SDS011;46911;32.650;-16.902;2024-01-16T09:48:56;59.22;;;8.23;;
61025;SDS011;46911;32.650;-16.902;2024-01-16T09:51:00;58.60;;;8.13;;
61025;SDS011;46911;32.650;-16.902;2024-01-16T09:53:00;72.93;;;8.65;;
61025;SDS011;46911;32.650;-16.902;2024-01-16T09:55:02;62.10;;;7.72;;
61025;SDS011;46911;32.650;-16.902;2024-01-16T09:57:04;60.25;;;7.70;;
61025;SDS011;46911;32.650;-16.902;2024-01-16T09:59:07;56.55;;;9.45;;
61025;SDS011;46911;32.650;-16.902;2024-01-16T10:01:11;60.22;;;7.78;;
61025;SDS011;46911;32.650;-16.902;2024-01-16T10:03:15;54.60;;;6.53;;
61025;SDS011;46911;32.650;-16.902;2024-01-16T10:05:17;51.67;;;7.32;;
61025;SDS011;46911;32.650;-16.902;2024-01-16T10:07:17;53.25;;;7.13;;
61025;SDS011;46911;32.650;-16.902;2024-01-16T10:09:28;50.75;;;7.60;;
61025;SDS011;46911;32.650;-16.902;2024-01-16T10:11:29;44.15;;;7.72;;
61025;SDS011;46911;32.650;-16.902;2024-01-16T10:13:36;46.95;;;7.22;;
61025;SDS011;46911;32.650;-16.902;2024-01-16T10:15:38;55.13;;;7.35;;
61025;SDS011;46911;32.650;-16.902;2024-01-16T10:17:42;51.42;;;7.68;;
61025;SDS011;46911;32.650;-16.902;2024-01-16T10:19:48;48.25;;;7.70;;
61025;SDS011;46911;32.650;-16.902;2024-01-16T10:21:51;52.80;;;8.18;;
61025;SDS011;46911;32.650;-16.902;2024-01-16T10:23:52;45.58;;;7.45;;
61025;SDS011;46911;32.650;-16.902;2024-01-16T10:26:08;41.85;;;6.45;;
61025;SDS011;46911;32.650;-16.902;2024-01-16T10:28:21;44.05;;;6.78;;
61025;SDS011;46911;32.650;-16.902;2024-01-16T10:30:27;58.83;;;8.05;;
61025;SDS011;46911;32.650;-16.902;2024-01-16T10:32:35;57.45;;;8.18;;
61025;SDS011;46911;32.650;-16.902;2024-01-16T10:34:38;50.10;;;6.40;;
61025;SDS011;46911;32.650;-16.902;2024-01-16T10:36:39;50.25;;;8.30;;
61025;SDS011;46911;32.650;-16.902;2024-01-16T10:38:44;52.53;;;7.53;;
61025;SDS011;46911;32.650;-16.902;2024-01-16T10:41:04;52.72;;;8.80;;
61025;SDS011;46911;32.650;-16.902;2024-01-16T10:43:08;46.65;;;8.27;;
61025;SDS011;46911;32.650;-16.902;2024-01-16T10:45:17;73.28;;;8.68;;
61025;SDS011;46911;32.650;-16.902;2024-01-16T10:47:22;51.17;;;9.23;;
61025;SDS011;46911;32.650;-16.902;2024-01-16T10:49:23;55.80;;;8.20;;
61025;SDS011;46911;32.650;-16.902;2024-01-16T10:51:27;60.30;;;8.82;;
61025;SDS011;46911;32.650;-16.902;2024-01-16T10:53:32;53.60;;;8.48;;
61025;SDS011;46911;32.650;-16.902;2024-01-16T10:55:53;52.22;;;7.72;;
61025;SDS011;46911;32.650;-16.902;2024-01-16T10:57:58;36.53;;;7.00;;
61025;SDS011;46911;32.650;-16.902;2024-01-16T11:00:03;49.33;;;8.27;;
61025;SDS011;46911;32.650;-16.902;2024-01-16T11:02:14;58.08;;;8.07;;
61025;SDS011;46911;32.650;-16.902;2024-01-16T11:04:19;57.53;;;8.23;;
61025;SDS011;46911;32.650;-16.902;2024-01-16T11:06:23;60.15;;;9.57;;
61025;SDS011;46911;32.650;-16.902;2024-01-16T11:08:24;57.72;;;8.75;;
61025;SDS011;46911;32.650;-16.902;2024-01-16T11:10:31;45.33;;;8.05;;
61025;SDS011;46911;32.650;-16.902;2024-01-16T11:12:37;49.22;;;7.97;;
61025;SDS011;46911;32.650;-16.902;2024-01-16T11:14:42;49.42;;;8.07;;
61025;SDS011;46911;32.650;-16.902;2024-01-16T11:16:56;45.95;;;8.02;;
61025;SDS011;46911;32.650;-16.902;2024-01-16T11:18:58;45.53;;;8.40;;
61025;SDS011;46911;32.650;-16.902;2024-01-16T11:20:59;45.53;;;7.28;;
61025;SDS011;46911;32.650;-16.902;2024-01-16T11:23:04;51.30;;;8.90;;
61025;SDS011;46911;32.650;-16.902;2024-01-16T11:25:08;55.00;;;8.77;;
61025;SDS011;46911;32.650;-16.902;2024-01-16T11:27:22;46.30;;;7.40;;
61025;SDS011;46911;32.650;-16.902;2024-01-16T11:31:30;55.80;;;7.47;;
61025;SDS011;46911;32.650;-16.902;2024-01-16T11:33:41;53.78;;;9.18;;
61025;SDS011;46911;32.650;-16.902;2024-01-16T11:35:43;46.25;;;6.90;;
61025;SDS011;46911;32.650;-16.902;2024-01-16T11:37:48;38.85;;;6.40;;
61025;SDS011;46911;32.650;-16.902;2024-01-16T11:39:49;53.72;;;8.77;;
61025;SDS011;46911;32.650;-16.902;2024-01-16T11:41:56;41.50;;;8.13;;
61025;SDS011;46911;32.650;-16.902;2024-01-16T11:43:58;48.05;;;7.63;;
61025;SDS011;46911;32.650;-16.902;2024-01-16T11:46:09;45.25;;;6.70;;
61025;SDS011;46911;32.650;-16.902;2024-01-16T11:50:27;41.25;;;9.00;;